Time;durP1;ratioP1;P1;durP2;ratioP2;P2;SDS_P1;SDS_P2;PMS_P1;PMS_P2;Temp;Humidity;BMP_temperature;BMP_pressure;BME280_temperature;BME280_humidity;BME280_pressure;Samples;Min_cycle;Max_cycle;Signal;HPM_P1;HPM_P2
2020/12/23 00:02:23;;;;;;;4.65;3.03;;;11.20;94.90;;;;;;4985027;28;20100;-59
2020/12/23 00:04:48;;;;;;;4.30;2.85;;;11.10;94.90;;;;;;4978452;28;20422;-59
2020/12/23 00:07:15;;;;;;;3.97;3.20;;;11.10;94.90;;;;;;4984012;28;20590;-58
2020/12/23 00:09:44;;;;;;;4.53;2.95;;;11.10;94.90;;;;;;4990794;28;20054;-58
2020/12/23 00:12:09;;;;;;;4.95;3.13;;;11.10;94.90;;;;;;4988082;28;20146;-57
2020/12/23 00:14:35;;;;;;;6.25;2.92;;;11.10;94.90;;;;;;4985619;28;20063;-57
2020/12/23 00:17:01;;;;;;;4.72;3.00;;;11.10;94.90;;;;;;4987337;28;20038;-57
2020/12/23 00:19:26;;;;;;;4.32;3.10;;;11.10;94.90;;;;;;4989548;28;20258;-59
2020/12/23 00:21:52;;;;;;;4.47;2.70;;;11.00;95.00;;;;;;4990245;28;20505;-57
2020/12/23 00:24:17;;;;;;;5.72;3.33;;;11.00;95.00;;;;;;4990088;28;20386;-57
2020/12/23 00:26:46;;;;;;;5.28;3.25;;;11.00;95.00;;;;;;4988827;28;20069;-57
2020/12/23 00:29:12;;;;;;;7.80;2.97;;;11.00;95.00;;;;;;4983316;28;20030;-59
2020/12/23 00:31:38;;;;;;;5.97;3.47;;;10.90;95.00;;;;;;4988928;28;20046;-58
2020/12/23 00:34:03;;;;;;;4.03;2.88;;;10.90;95.00;;;;;;4981119;28;20026;-57
2020/12/23 00:36:29;;;;;;;4.38;3.35;;;10.90;94.90;;;;;;4985348;28;20026;-57
2020/12/23 00:38:54;;;;;;;4.53;3.08;;;10.90;94.90;;;;;;4980988;28;20066;-58
2020/12/23 00:41:20;;;;;;;4.38;3.20;;;10.90;95.00;;;;;;4984373;28;20427;-57
2020/12/23 00:43:45;;;;;;;6.70;2.60;;;10.90;95.00;;;;;;4979219;28;20038;-59
2020/12/23 00:46:11;;;;;;;7.10;3.20;;;10.90;95.00;;;;;;4984922;28;20125;-57
2020/12/23 00:48:38;;;;;;;5.03;3.28;;;10.80;95.00;;;;;;4979904;28;20387;-57
2020/12/23 00:51:11;;;;;;;6.22;3.20;;;10.80;95.00;;;;;;4984579;28;20026;-57
2020/12/23 00:53:38;;;;;;;5.68;2.85;;;10.80;95.00;;;;;;4986432;28;20038;-58
2020/12/23 00:56:03;;;;;;;4.70;2.92;;;10.80;95.00;;;;;;4988385;28;20080;-56
2020/12/23 00:58:28;;;;;;;3.92;2.78;;;10.80;94.90;;;;;;4983601;28;20506;-57
2020/12/23 01:00:54;;;;;;;4.95;3.13;;;10.80;94.90;;;;;;4984688;28;20031;-57
2020/12/23 01:03:20;;;;;;;5.72;3.60;;;10.80;94.90;;;;;;4982036;28;20029;-57
2020/12/23 01:05:45;;;;;;;4.32;3.28;;;10.70;94.90;;;;;;4984718;28;20073;-57
2020/12/23 01:08:11;;;;;;;5.40;3.53;;;10.70;95.00;;;;;;4981346;28;20118;-58
2020/12/23 01:10:36;;;;;;;6.20;3.45;;;10.70;95.00;;;;;;4981311;28;20121;-57
2020/12/23 01:13:02;;;;;;;4.75;3.50;;;10.70;95.00;;;;;;4969071;28;20040;-59
2020/12/23 01:15:27;;;;;;;4.90;3.13;;;10.70;95.00;;;;;;4984265;28;20449;-57
2020/12/23 01:17:53;;;;;;;4.97;3.22;;;10.70;95.00;;;;;;4984580;28;20030;-58
2020/12/23 01:20:18;;;;;;;5.22;3.10;;;10.60;95.00;;;;;;4991414;28;20080;-57
2020/12/23 01:22:44;;;;;;;5.30;3.42;;;10.60;95.00;;;;;;4981853;28;20093;-57
2020/12/23 01:25:09;;;;;;;4.18;3.30;;;10.60;95.10;;;;;;4992036;28;20429;-58
2020/12/23 01:27:35;;;;;;;3.95;3.10;;;10.60;95.00;;;;;;4992564;28;20069;-58
2020/12/23 01:30:00;;;;;;;5.07;3.47;;;10.60;95.00;;;;;;4993566;28;20106;-58
2020/12/23 01:32:26;;;;;;;4.97;3.45;;;10.60;95.00;;;;;;4989161;28;20031;-57
2020/12/23 01:34:51;;;;;;;4.55;3.15;;;10.60;95.00;;;;;;4990116;28;20069;-57
2020/12/23 01:37:17;;;;;;;5.13;3.28;;;10.60;95.00;;;;;;4986671;28;20533;-58
2020/12/23 01:39:42;;;;;;;5.30;3.50;;;10.60;95.00;;;;;;4990421;28;20092;-57
2020/12/23 01:42:08;;;;;;;5.28;3.47;;;10.60;95.00;;;;;;4986829;28;20073;-56
2020/12/23 01:44:36;;;;;;;8.55;3.38;;;10.50;95.00;;;;;;4993131;28;20042;-56
2020/12/23 01:47:08;;;;;;;4.85;3.10;;;10.60;95.00;;;;;;4991177;28;20014;-57
2020/12/23 01:49:33;;;;;;;5.40;3.53;;;10.50;95.00;;;;;;4985972;28;20038;-56
2020/12/23 01:51:59;;;;;;;4.90;3.20;;;10.60;95.00;;;;;;5006324;28;20014;-59
2020/12/23 01:54:24;;;;;;;5.30;3.65;;;10.50;95.00;;;;;;4991855;28;20038;-56
2020/12/23 01:56:49;;;;;;;6.18;3.45;;;10.50;95.00;;;;;;4991632;28;20061;-57
2020/12/23 01:59:15;;;;;;;4.18;2.83;;;10.50;95.10;;;;;;4975136;28;20113;-58
2020/12/23 02:01:45;;;;;;;4.80;3.08;;;10.50;95.10;;;;;;4990924;28;20054;-59
2020/12/23 02:04:10;;;;;;;5.18;3.22;;;10.50;95.10;;;;;;4991413;28;20038;-57
2020/12/23 02:06:36;;;;;;;3.45;2.85;;;10.50;95.10;;;;;;4992762;28;20394;-58
2020/12/23 02:09:03;;;;;;;5.28;3.15;;;10.40;95.10;;;;;;4975504;28;20062;-58
2020/12/23 02:11:28;;;;;;;5.97;3.17;;;10.40;95.10;;;;;;4991232;28;20081;-56
2020/12/23 02:13:54;;;;;;;4.30;3.00;;;10.40;95.20;;;;;;4991172;28;20035;-58
2020/12/23 02:16:19;;;;;;;4.20;3.30;;;10.40;95.10;;;;;;4991278;28;20030;-59
2020/12/23 02:18:45;;;;;;;5.15;3.53;;;10.40;95.20;;;;;;4991200;28;20035;-57
2020/12/23 02:21:10;;;;;;;4.68;3.13;;;10.40;95.20;;;;;;4992103;28;20046;-57
2020/12/23 02:23:36;;;;;;;5.35;3.38;;;10.40;95.20;;;;;;4975239;28;20081;-58
2020/12/23 02:26:01;;;;;;;3.65;3.15;;;10.40;95.20;;;;;;4991257;28;20117;-58
2020/12/23 02:28:27;;;;;;;5.95;3.30;;;10.40;95.20;;;;;;4988604;28;20056;-58
2020/12/23 02:30:58;;;;;;;7.03;3.70;;;10.30;95.20;;;;;;4970904;28;20030;-57
2020/12/23 02:33:23;;;;;;;4.32;3.13;;;10.40;95.20;;;;;;4992212;28;20026;-57
2020/12/23 02:35:48;;;;;;;4.72;3.15;;;10.30;95.20;;;;;;4991637;28;20476;-58
2020/12/23 02:38:14;;;;;;;4.60;2.90;;;10.30;95.20;;;;;;4992097;28;20049;-57
2020/12/23 02:40:39;;;;;;;4.82;2.90;;;10.30;95.30;;;;;;4988856;28;20038;-59
2020/12/23 02:43:05;;;;;;;6.05;3.25;;;10.30;95.30;;;;;;4991704;28;20026;-57
2020/12/23 02:45:31;;;;;;;4.40;3.08;;;10.40;95.60;;;;;;4991578;28;20116;-59
2020/12/23 02:47:56;;;;;;;3.20;2.72;;;10.30;95.30;;;;;;4990718;28;20429;-58
2020/12/23 02:50:22;;;;;;;4.53;3.50;;;10.30;95.30;;;;;;4991482;28;20029;-58
2020/12/23 02:52:47;;;;;;;4.50;3.25;;;10.30;95.30;;;;;;4990433;28;20101;-59
2020/12/23 02:55:12;;;;;;;5.20;3.00;;;10.30;95.30;;;;;;4990271;28;20034;-59
2020/12/23 02:57:38;;;;;;;5.07;3.03;;;10.30;95.30;;;;;;4990708;28;20508;-58
2020/12/23 03:00:04;;;;;;;3.97;2.90;;;10.30;95.30;;;;;;4987263;28;20037;-58
2020/12/23 03:02:30;;;;;;;2.75;2.30;;;10.30;95.40;;;;;;4988312;28;20097;-57
2020/12/23 03:04:55;;;;;;;3.47;2.85;;;10.30;95.40;;;;;;4987453;28;20122;-57
2020/12/23 03:07:21;;;;;;;4.88;3.03;;;10.30;95.30;;;;;;4989482;28;20042;-59
2020/12/23 03:09:46;;;;;;;4.55;3.33;;;10.30;95.40;;;;;;4991203;28;20125;-57
2020/12/23 03:12:12;;;;;;;4.03;3.10;;;10.30;95.30;;;;;;4990329;28;20068;-58
2020/12/23 03:14:37;;;;;;;3.50;2.80;;;10.30;95.40;;;;;;4990707;28;20490;-57
2020/12/23 03:17:03;;;;;;;4.25;3.20;;;10.30;95.40;;;;;;4990039;28;20046;-57
2020/12/23 03:19:28;;;;;;;5.38;3.00;;;10.30;95.40;;;;;;4988839;28;20077;-58
2020/12/23 03:21:54;;;;;;;4.75;3.10;;;10.30;95.40;;;;;;4990514;28;20037;-58
2020/12/23 03:24:19;;;;;;;4.05;3.05;;;10.30;95.30;;;;;;4991413;28;20022;-58
2020/12/23 03:26:45;;;;;;;4.28;2.95;;;10.30;95.30;;;;;;4989578;28;20026;-58
2020/12/23 03:29:10;;;;;;;3.55;2.78;;;10.30;95.40;;;;;;4989750;28;20061;-57
2020/12/23 03:31:36;;;;;;;4.88;3.20;;;10.20;95.40;;;;;;4987041;28;20552;-57
2020/12/23 03:34:01;;;;;;;4.25;2.97;;;10.30;95.40;;;;;;4986496;28;20073;-57
2020/12/23 03:36:27;;;;;;;3.92;2.80;;;10.20;95.40;;;;;;4987735;28;20117;-59
2020/12/23 03:38:52;;;;;;;4.53;3.28;;;10.30;95.40;;;;;;4986916;28;20023;-58
2020/12/23 03:41:18;;;;;;;4.18;2.78;;;10.30;95.70;;;;;;4987443;28;20269;-58
2020/12/23 03:43:43;;;;;;;4.50;2.83;;;10.30;95.40;;;;;;4987052;28;20073;-58
2020/12/23 03:46:09;;;;;;;3.90;2.80;;;10.30;95.40;;;;;;4986444;28;20668;-57
2020/12/23 03:48:34;;;;;;;4.00;2.70;;;10.30;95.40;;;;;;4989119;28;20060;-57
2020/12/23 03:51:00;;;;;;;3.83;2.80;;;10.20;95.40;;;;;;4983547;28;20125;-58
2020/12/23 03:53:25;;;;;;;4.32;3.03;;;10.20;95.40;;;;;;4988915;28;20034;-57
2020/12/23 03:55:51;;;;;;;3.00;2.60;;;10.20;95.40;;;;;;4990315;28;20022;-57
2020/12/23 03:58:16;;;;;;;4.28;2.80;;;10.20;95.40;;;;;;4984480;28;20113;-58
2020/12/23 04:00:42;;;;;;;3.65;2.83;;;10.20;95.40;;;;;;4980605;28;20159;-56
2020/12/23 04:03:08;;;;;;;3.78;2.88;;;10.20;95.40;;;;;;4984702;28;20049;-57
2020/12/23 04:05:33;;;;;;;4.13;2.97;;;10.20;95.40;;;;;;4982621;28;20053;-58
2020/12/23 04:07:59;;;;;;;4.65;2.97;;;10.20;95.40;;;;;;4984403;28;20093;-57
2020/12/23 04:10:24;;;;;;;4.45;2.80;;;10.20;95.40;;;;;;4980199;28;20581;-57
2020/12/23 04:12:50;;;;;;;4.00;2.90;;;10.20;95.40;;;;;;4982232;28;20529;-58
2020/12/23 04:15:15;;;;;;;3.25;2.63;;;10.20;95.40;;;;;;4982351;28;20031;-56
2020/12/23 04:17:41;;;;;;;4.90;3.92;;;10.20;95.40;;;;;;4987704;28;20030;-57
2020/12/23 04:20:07;;;;;;;4.93;3.50;;;10.20;95.40;;;;;;4986995;28;20034;-58
2020/12/23 04:22:33;;;;;;;4.85;3.63;;;10.20;95.40;;;;;;4984355;28;20019;-59
2020/12/23 04:24:59;;;;;;;4.55;3.70;;;10.20;95.40;;;;;;4979760;28;20062;-57
2020/12/23 04:27:24;;;;;;;3.78;3.08;;;10.20;95.40;;;;;;4988655;28;20022;-57
2020/12/23 04:29:50;;;;;;;4.00;2.90;;;10.20;95.40;;;;;;4990151;28;20425;-59
2020/12/23 04:32:15;;;;;;;3.78;3.03;;;10.20;95.50;;;;;;4988693;28;20026;-58
2020/12/23 04:34:41;;;;;;;3.63;3.17;;;10.10;95.40;;;;;;4989699;28;20051;-58
2020/12/23 04:37:07;;;;;;;3.92;3.00;;;10.20;95.50;;;;;;4971439;28;20034;-59
2020/12/23 04:39:32;;;;;;;5.78;2.92;;;10.20;95.50;;;;;;4987369;28;20038;-57
2020/12/23 04:41:58;;;;;;;5.30;3.60;;;10.20;95.50;;;;;;4988483;28;20076;-57
2020/12/23 04:44:23;;;;;;;5.03;3.35;;;10.10;95.50;;;;;;4988415;28;20051;-57
2020/12/23 04:46:49;;;;;;;4.60;3.28;;;10.20;95.50;;;;;;4988293;28;20474;-56
2020/12/23 04:49:14;;;;;;;3.78;3.03;;;10.10;95.50;;;;;;5004383;28;20038;-58
2020/12/23 04:51:40;;;;;;;4.78;3.03;;;10.20;95.50;;;;;;4988554;28;20042;-56
2020/12/23 04:54:06;;;;;;;3.78;2.97;;;10.10;95.50;;;;;;4989737;28;20022;-58
2020/12/23 04:56:32;;;;;;;3.58;2.90;;;10.10;95.50;;;;;;4988474;28;20030;-58
2020/12/23 04:58:59;;;;;;;6.28;3.50;;;10.10;95.50;;;;;;4991108;28;20496;-57
2020/12/23 05:01:24;;;;;;;4.32;2.78;;;10.10;95.50;;;;;;4991833;28;20092;-59
2020/12/23 05:03:53;;;;;;;5.15;3.03;;;10.10;95.50;;;;;;4991917;28;20545;-57
2020/12/23 05:06:20;;;;;;;4.72;3.00;;;10.10;95.50;;;;;;4990981;28;20059;-59
2020/12/23 05:08:45;;;;;;;3.80;3.00;;;10.10;95.50;;;;;;5008915;28;20105;-58
2020/12/23 05:11:11;;;;;;;4.43;3.33;;;10.10;95.50;;;;;;4992037;28;20114;-58
2020/12/23 05:13:37;;;;;;;4.70;3.40;;;10.10;95.80;;;;;;4992429;28;20028;-58
2020/12/23 05:16:10;;;;;;;3.90;3.08;;;10.10;95.50;;;;;;4991134;28;20136;-57
2020/12/23 05:18:39;;;;;;;4.18;3.20;;;10.10;95.50;;;;;;4990840;28;20453;-59
2020/12/23 05:21:14;;;;;;;4.57;3.35;;;10.10;95.50;;;;;;4992009;28;20038;-58
2020/12/23 05:23:41;;;;;;;5.93;3.15;;;10.10;95.50;;;;;;4992629;28;20058;-58
2020/12/23 05:26:06;;;;;;;3.65;2.80;;;10.10;95.50;;;;;;4993095;28;20033;-57
2020/12/23 05:28:32;;;;;;;4.43;3.10;;;10.10;95.80;;;;;;4991119;28;20038;-57
2020/12/23 05:31:07;;;;;;;3.92;3.33;;;10.00;95.50;;;;;;4974277;28;20089;-56
2020/12/23 05:33:33;;;;;;;4.03;3.00;;;10.10;95.50;;;;;;4966827;28;20118;-57
2020/12/23 05:36:07;;;;;;;3.55;2.67;;;10.10;95.50;;;;;;4984236;28;20296;-58
2020/12/23 05:38:32;;;;;;;4.28;3.30;;;10.10;95.50;;;;;;4985939;28;20027;-57
2020/12/23 05:40:59;;;;;;;3.80;2.95;;;10.00;95.50;;;;;;4976386;28;20027;-57
2020/12/23 05:43:25;;;;;;;3.35;2.70;;;10.10;95.60;;;;;;4976549;28;20049;-59
2020/12/23 05:46:02;;;;;;;3.28;2.60;;;10.00;95.50;;;;;;4980346;28;20088;-57
2020/12/23 05:48:28;;;;;;;4.00;3.00;;;10.00;95.60;;;;;;4991887;28;20030;-57
2020/12/23 05:50:53;;;;;;;4.35;2.70;;;10.10;95.60;;;;;;4968695;28;20030;-58
2020/12/23 05:53:19;;;;;;;3.60;2.70;;;10.00;95.60;;;;;;4991597;28;20026;-58
2020/12/23 05:55:45;;;;;;;3.13;2.50;;;10.00;95.60;;;;;;4991076;28;20022;-56
2020/12/23 05:58:18;;;;;;;4.45;3.00;;;10.00;95.60;;;;;;4990813;28;20018;-58
2020/12/23 06:00:43;;;;;;;3.97;2.60;;;10.00;95.50;;;;;;4976044;28;20068;-58
2020/12/23 06:03:42;;;;;;;4.55;2.88;;;10.00;95.60;;;;;;4991401;28;20101;-59
2020/12/23 06:06:08;;;;;;;3.50;2.78;;;10.00;95.60;;;;;;4973475;28;20597;-58
2020/12/23 06:08:37;;;;;;;3.10;2.53;;;10.00;95.60;;;;;;4991626;28;20046;-57
2020/12/23 06:11:12;;;;;;;4.60;2.50;;;10.00;95.60;;;;;;4990571;28;20022;-59
2020/12/23 06:13:48;;;;;;;4.07;2.50;;;10.00;95.60;;;;;;4992488;28;20037;-58
2020/12/23 06:16:13;;;;;;;3.50;2.50;;;10.00;95.60;;;;;;4984565;28;20294;-58
2020/12/23 06:18:39;;;;;;;3.03;2.60;;;10.00;95.60;;;;;;4974891;28;20032;-58
2020/12/23 06:21:06;;;;;;;3.58;2.47;;;10.00;95.60;;;;;;4974012;28;20027;-59
2020/12/23 06:23:31;;;;;;;3.22;2.33;;;10.00;95.60;;;;;;4989500;28;20038;-58
2020/12/23 06:25:57;;;;;;;3.55;2.72;;;10.00;95.60;;;;;;5007332;28;20041;-57
2020/12/23 06:28:22;;;;;;;3.17;2.45;;;10.00;95.60;;;;;;4966490;28;20034;-58
2020/12/23 06:30:50;;;;;;;4.25;2.60;;;10.00;95.60;;;;;;4991906;28;20498;-57
2020/12/23 06:33:15;;;;;;;4.15;2.83;;;10.00;95.70;;;;;;4987375;28;20034;-60
2020/12/23 06:35:41;;;;;;;3.53;2.40;;;10.00;95.70;;;;;;4973236;28;20425;-58
2020/12/23 06:38:20;;;;;;;3.63;2.47;;;10.00;95.70;;;;;;4984555;28;20026;-56
2020/12/23 06:40:58;;;;;;;3.40;2.50;;;10.00;95.70;;;;;;4985655;28;20030;-57
2020/12/23 06:43:52;;;;;;;3.95;2.67;;;10.00;95.70;;;;;;4988729;28;20034;-59
2020/12/23 06:46:18;;;;;;;2.92;2.13;;;10.00;95.60;;;;;;4988047;28;20039;-57
2020/12/23 06:48:43;;;;;;;3.42;2.50;;;10.00;95.60;;;;;;4984013;28;20102;-58
2020/12/23 06:51:09;;;;;;;2.88;2.20;;;10.00;95.60;;;;;;4986505;28;20158;-56
2020/12/23 06:53:35;;;;;;;3.75;2.63;;;10.00;95.60;;;;;;4972910;28;20053;-58
2020/12/23 06:56:00;;;;;;;3.03;2.35;;;10.00;95.60;;;;;;4984717;28;20026;-61
2020/12/23 06:58:39;;;;;;;3.17;2.50;;;10.00;95.60;;;;;;4990622;28;20018;-56
2020/12/23 07:01:18;;;;;;;3.88;2.60;;;10.00;95.60;;;;;;4985549;28;20105;-58
2020/12/23 07:03:44;;;;;;;3.42;2.40;;;10.00;95.60;;;;;;4988058;28;20027;-58
2020/12/23 07:06:29;;;;;;;4.18;2.08;;;10.00;95.60;;;;;;4983392;28;20069;-59
2020/12/23 07:08:55;;;;;;;2.97;2.30;;;10.00;95.50;;;;;;4988795;28;20217;-57
2020/12/23 07:11:21;;;;;;;3.63;2.40;;;10.00;95.50;;;;;;4988696;28;20030;-58
2020/12/23 07:13:48;;;;;;;6.28;2.63;;;10.00;95.50;;;;;;4988771;28;20537;-58
2020/12/23 07:16:14;;;;;;;3.90;2.60;;;10.00;95.50;;;;;;4969931;28;20041;-57
2020/12/23 07:18:39;;;;;;;3.10;2.15;;;10.00;95.50;;;;;;4990038;28;20382;-58
2020/12/23 07:21:08;;;;;;;3.58;2.35;;;10.00;95.50;;;;;;4984913;28;20026;-57
2020/12/23 07:23:34;;;;;;;3.03;2.30;;;10.00;95.50;;;;;;4989987;28;20088;-57
2020/12/23 07:26:04;;;;;;;5.75;2.53;;;10.00;95.50;;;;;;4985105;28;20030;-58
2020/12/23 07:28:32;;;;;;;6.65;2.30;;;10.00;95.50;;;;;;4985435;28;20042;-58
2020/12/23 07:30:58;;;;;;;3.47;2.17;;;10.00;95.40;;;;;;4985509;28;20515;-61
2020/12/23 07:33:24;;;;;;;6.22;3.03;;;10.00;95.40;;;;;;4986816;28;20089;-60
2020/12/23 07:35:52;;;;;;;7.80;2.58;;;10.00;95.40;;;;;;4949393;28;20026;-57
2020/12/23 07:38:18;;;;;;;12.20;2.80;;;10.00;95.40;;;;;;4983836;28;20032;-56
2020/12/23 07:40:44;;;;;;;5.90;2.40;;;10.00;95.40;;;;;;4967154;28;20086;-56
2020/12/23 07:43:09;;;;;;;4.30;2.55;;;10.00;95.40;;;;;;4988302;28;20033;-58
2020/12/23 07:45:35;;;;;;;11.55;2.80;;;10.00;95.40;;;;;;4986222;28;20141;-57
2020/12/23 07:48:04;;;;;;;6.35;2.67;;;10.00;95.40;;;;;;4982670;28;20102;-57
2020/12/23 07:50:40;;;;;;;10.05;2.78;;;10.00;95.40;;;;;;4988665;28;20407;-58
2020/12/23 07:53:19;;;;;;;5.80;2.60;;;10.00;95.30;;;;;;4970586;28;20604;-57
2020/12/23 07:56:05;;;;;;;6.78;2.80;;;10.00;95.30;;;;;;4979112;28;20114;-58
2020/12/23 07:58:32;;;;;;;11.77;3.15;;;10.00;95.30;;;;;;4986490;28;20030;-58
2020/12/23 08:00:57;;;;;;;10.13;2.80;;;10.00;95.30;;;;;;4987190;28;20026;-57
2020/12/23 08:03:30;;;;;;;14.88;2.55;;;10.10;95.30;;;;;;4983494;28;20101;-57
2020/12/23 08:06:04;;;;;;;13.18;3.05;;;10.10;95.30;;;;;;4983765;28;20053;-59
2020/12/23 08:08:29;;;;;;;17.83;3.80;;;10.10;95.30;;;;;;4985919;28;20054;-58
2020/12/23 08:10:55;;;;;;;12.77;2.83;;;10.10;95.30;;;;;;4982784;28;20105;-58
2020/12/23 08:13:27;;;;;;;16.90;4.05;;;10.10;95.60;;;;;;4984656;28;20030;-57
2020/12/23 08:16:03;;;;;;;26.35;4.25;;;10.10;95.30;;;;;;4984510;28;20023;-57
2020/12/23 08:18:28;;;;;;;12.60;4.22;;;10.10;95.40;;;;;;4980242;28;20093;-57
2020/12/23 08:20:54;;;;;;;24.13;3.40;;;10.10;95.40;;;;;;4996751;28;20043;-59
2020/12/23 08:23:19;;;;;;;18.30;3.85;;;10.10;95.30;;;;;;4982471;28;20490;-58
2020/12/23 08:25:45;;;;;;;24.13;3.92;;;10.10;95.30;;;;;;4982806;28;20125;-61
2020/12/23 08:28:10;;;;;;;19.52;4.28;;;10.10;95.30;;;;;;4985502;28;20053;-58
2020/12/23 08:30:36;;;;;;;30.20;5.05;;;10.10;95.30;;;;;;4961536;28;20038;-63
2020/12/23 08:33:11;;;;;;;32.72;5.10;;;10.10;95.30;;;;;;4982678;28;20433;-56
2020/12/23 08:35:41;;;;;;;36.63;5.20;;;10.10;95.20;;;;;;4982610;28;20022;-59
2020/12/23 08:38:19;;;;;;;25.52;5.05;;;10.10;95.20;;;;;;5004221;28;20033;-56
2020/12/23 08:40:48;;;;;;;32.75;4.93;;;10.10;95.20;;;;;;4977849;28;20158;-58
2020/12/23 08:43:20;;;;;;;59.08;6.95;;;10.10;95.20;;;;;;4984918;28;20474;-56
2020/12/23 08:45:46;;;;;;;30.38;4.90;;;10.20;95.20;;;;;;4965698;28;20038;-58
2020/12/23 08:48:17;;;;;;;41.20;5.57;;;10.20;95.20;;;;;;4983091;28;20039;-60
2020/12/23 08:50:42;;;;;;;27.23;4.65;;;10.20;95.10;;;;;;4967452;28;20026;-58
2020/12/23 08:53:08;;;;;;;56.90;7.20;;;10.20;95.10;;;;;;4979275;28;20045;-59
2020/12/23 08:55:33;;;;;;;107.22;13.50;;;10.30;95.10;;;;;;4981517;28;20418;-58
2020/12/23 08:58:09;;;;;;;78.53;9.80;;;10.30;95.10;;;;;;4993948;28;20109;-59
2020/12/23 09:00:34;;;;;;;;;;;10.20;95.00;;;;;;4979003;28;20035;-57
2020/12/23 09:03:00;;;;;;;74.07;8.57;;;10.30;95.00;;;;;;4978949;28;20526;-58
2020/12/23 09:05:30;;;;;;;64.90;8.88;;;10.30;94.90;;;;;;4983190;28;20034;-56
2020/12/23 09:08:25;;;;;;;75.88;9.18;;;10.30;94.90;;;;;;4966822;28;20073;-58
2020/12/23 09:10:52;;;;;;;86.47;9.05;;;10.40;95.00;;;;;;4979820;28;20039;-57
2020/12/23 09:13:18;;;;;;;73.15;8.68;;;10.30;95.00;;;;;;4981105;28;20034;-56
2020/12/23 09:15:52;;;;;;;54.60;6.97;;;10.40;95.10;;;;;;5002388;28;20041;-58
2020/12/23 09:18:17;;;;;;;72.60;8.95;;;10.40;95.00;;;;;;4985912;28;20019;-56
2020/12/23 09:20:43;;;;;;;45.65;7.35;;;10.30;94.90;;;;;;4978409;28;20478;-56
2020/12/23 09:23:09;;;;;;;57.88;7.78;;;10.40;94.90;;;;;;5002615;28;20038;-56
2020/12/23 09:25:38;;;;;;;66.18;8.32;;;10.40;94.90;;;;;;4966835;28;20191;-59
2020/12/23 09:28:07;;;;;;;94.68;11.05;;;10.40;95.20;;;;;;4978678;28;20035;-57
2020/12/23 09:30:52;;;;;;;62.45;9.00;;;10.40;94.90;;;;;;4983329;28;20084;-57
2020/12/23 09:33:21;;;;;;;60.67;8.15;;;10.40;94.90;;;;;;4981811;28;20035;-56
2020/12/23 09:35:51;;;;;;;47.20;7.32;;;10.40;94.90;;;;;;4983433;28;20027;-59
2020/12/23 09:38:23;;;;;;;36.38;6.72;;;10.40;94.80;;;;;;4983920;28;20037;-59
2020/12/23 09:40:50;;;;;;;47.17;7.75;;;10.40;94.80;;;;;;4985713;28;20069;-57
2020/12/23 09:43:20;;;;;;;50.03;7.28;;;10.40;94.80;;;;;;4987382;28;20065;-57
2020/12/23 09:45:46;;;;;;;56.40;7.72;;;10.50;94.80;;;;;;4988267;28;20456;-57
2020/12/23 09:48:13;;;;;;;37.25;6.60;;;10.50;94.80;;;;;;4986934;28;20494;-56
2020/12/23 09:50:39;;;;;;;48.72;6.40;;;10.50;94.80;;;;;;4987748;28;20036;-57
2020/12/23 09:53:05;;;;;;;48.72;8.50;;;10.50;94.70;;;;;;4986693;28;20105;-59
2020/12/23 09:55:30;;;;;;;79.95;9.18;;;10.50;94.80;;;;;;4989864;28;20661;-57
2020/12/23 09:57:56;;;;;;;57.85;9.10;;;10.50;94.70;;;;;;4990894;28;20111;-57
2020/12/23 10:00:22;;;;;;;54.85;8.63;;;10.50;94.70;;;;;;4968925;28;20411;-57
2020/12/23 10:02:47;;;;;;;53.70;7.70;;;10.50;94.70;;;;;;4986798;28;20022;-57
2020/12/23 10:05:13;;;;;;;58.22;7.95;;;10.50;94.70;;;;;;4978556;28;20043;-57
2020/12/23 10:07:39;;;;;;;50.53;7.38;;;10.50;94.70;;;;;;4983400;28;20026;-58
2020/12/23 10:10:04;;;;;;;63.45;8.18;;;10.60;94.70;;;;;;4992391;28;20403;-58
2020/12/23 10:12:30;;;;;;;43.67;7.00;;;10.60;94.70;;;;;;4992200;28;20546;-58
2020/12/23 10:14:55;;;;;;;43.97;7.13;;;10.60;94.70;;;;;;4989358;28;20141;-58
2020/12/23 10:17:21;;;;;;;49.30;6.85;;;10.60;94.70;;;;;;4984767;28;20130;-57
2020/12/23 10:19:46;;;;;;;39.53;7.07;;;10.60;94.60;;;;;;4984941;28;20030;-58
2020/12/23 10:22:12;;;;;;;38.85;7.32;;;10.60;94.60;;;;;;4983284;28;20026;-58
2020/12/23 10:24:38;;;;;;;48.42;7.85;;;10.60;94.60;;;;;;4983052;28;20034;-57
2020/12/23 10:27:04;;;;;;;52.90;7.20;;;10.60;94.60;;;;;;4989720;28;20026;-57
2020/12/23 10:29:29;;;;;;;79.93;8.95;;;10.70;94.60;;;;;;4988849;28;20545;-58
2020/12/23 10:31:55;;;;;;;49.30;6.95;;;10.70;94.60;;;;;;4987763;28;20078;-56
2020/12/23 10:34:20;;;;;;;40.72;7.00;;;10.70;94.60;;;;;;4986237;28;20080;-58
2020/12/23 10:36:46;;;;;;;34.00;6.00;;;10.70;94.60;;;;;;4983949;28;20069;-57
2020/12/23 10:39:12;;;;;;;41.30;5.95;;;10.70;94.70;;;;;;4990990;28;20026;-60
2020/12/23 10:41:37;;;;;;;65.05;8.10;;;10.70;94.50;;;;;;4983107;28;20168;-57
2020/12/23 10:44:03;;;;;;;41.47;6.60;;;10.80;94.50;;;;;;4987828;28;20058;-56
2020/12/23 10:46:28;;;;;;;46.83;6.20;;;10.80;94.50;;;;;;4989796;28;20054;-58
2020/12/23 10:48:54;;;;;;;44.67;7.03;;;10.80;94.50;;;;;;4983453;28;20034;-57
2020/12/23 10:51:19;;;;;;;55.78;7.75;;;10.80;94.50;;;;;;4981278;28;20034;-57
2020/12/23 10:53:45;;;;;;;48.08;7.80;;;10.80;94.40;;;;;;4982743;28;20022;-57
2020/12/23 10:56:10;;;;;;;64.43;8.05;;;10.80;94.40;;;;;;4978462;28;20434;-61
2020/12/23 10:58:36;;;;;;;71.28;8.77;;;10.90;94.40;;;;;;4991100;28;20030;-57
2020/12/23 11:01:05;;;;;;;50.95;6.30;;;10.90;94.40;;;;;;4990066;28;20026;-58
2020/12/23 11:03:33;;;;;;;46.50;5.80;;;10.90;94.40;;;;;;4990738;28;20049;-57
2020/12/23 11:06:00;;;;;;;58.20;7.70;;;10.90;94.30;;;;;;4986666;28;20030;-57
2020/12/23 11:08:25;;;;;;;51.00;7.55;;;10.90;94.30;;;;;;4988799;28;20034;-58
2020/12/23 11:10:51;;;;;;;57.78;7.68;;;11.00;94.30;;;;;;4981074;28;20053;-59
2020/12/23 11:13:17;;;;;;;74.45;9.18;;;11.00;94.30;;;;;;4981870;28;20501;-57
2020/12/23 11:15:42;;;;;;;72.53;9.70;;;11.00;94.30;;;;;;4984604;28;20049;-59
2020/12/23 11:18:08;;;;;;;63.90;8.88;;;11.00;94.30;;;;;;4991185;28;20096;-58
2020/12/23 11:20:33;;;;;;;75.60;7.53;;;11.00;94.20;;;;;;4991372;28;20027;-56
2020/12/23 11:22:59;;;;;;;64.95;7.60;;;11.00;94.20;;;;;;4985031;28;20034;-56
2020/12/23 11:25:24;;;;;;;80.00;9.25;;;11.00;94.20;;;;;;4989406;28;20778;-58
2020/12/23 11:27:50;;;;;;;37.85;7.03;;;11.00;94.10;;;;;;4989791;28;20033;-59
2020/12/23 11:30:15;;;;;;;59.92;9.65;;;11.00;94.10;;;;;;4989641;28;20033;-58
2020/12/23 11:32:41;;;;;;;66.00;9.35;;;11.10;94.10;;;;;;4990957;28;20026;-57
2020/12/23 11:35:06;;;;;;;79.85;9.20;;;11.00;94.10;;;;;;4988746;28;20497;-57
2020/12/23 11:37:32;;;;;;;76.78;10.52;;;11.10;94.10;;;;;;4989670;28;20375;-59
2020/12/23 11:39:58;;;;;;;49.50;7.50;;;11.10;94.10;;;;;;4990606;28;20057;-58
2020/12/23 11:42:24;;;;;;;80.93;10.13;;;11.10;94.10;;;;;;4986984;28;20477;-56
2020/12/23 11:44:50;;;;;;;44.40;8.10;;;11.10;94.10;;;;;;4990142;28;20478;-57
2020/12/23 11:47:16;;;;;;;64.57;7.65;;;11.20;94.10;;;;;;4986255;28;20475;-56
2020/12/23 11:49:42;;;;;;;59.90;7.95;;;11.20;94.00;;;;;;4988204;28;20064;-57
2020/12/23 11:52:07;;;;;;;58.55;8.55;;;11.20;94.00;;;;;;4989849;28;20027;-58
2020/12/23 11:54:33;;;;;;;77.55;11.38;;;11.20;94.00;;;;;;4990002;28;20061;-57
2020/12/23 11:56:58;;;;;;;82.95;12.57;;;11.20;94.00;;;;;;4987337;28;20022;-57
2020/12/23 11:59:26;;;;;;;65.03;8.85;;;11.20;94.00;;;;;;4989934;28;20773;-58
2020/12/23 12:01:53;;;;;;;46.40;8.05;;;11.20;93.90;;;;;;4987299;28;20084;-57
2020/12/23 12:04:19;;;;;;;70.70;8.93;;;11.30;94.00;;;;;;4988948;28;20034;-59
2020/12/23 12:06:44;;;;;;;68.15;10.15;;;11.30;94.00;;;;;;4972422;28;20038;-56
2020/12/23 12:09:10;;;;;;;74.32;8.15;;;11.30;93.90;;;;;;4989092;28;20041;-57
2020/12/23 12:11:35;;;;;;;57.72;8.45;;;11.30;93.90;;;;;;4988674;28;20406;-58
2020/12/23 12:14:01;;;;;;;58.63;8.32;;;11.40;93.90;;;;;;4987244;28;20038;-56
2020/12/23 12:16:26;;;;;;;60.95;9.60;;;11.30;93.90;;;;;;4985379;28;20141;-58
2020/12/23 12:18:52;;;;;;;56.35;7.85;;;11.40;93.90;;;;;;4990307;28;20393;-58
2020/12/23 12:21:17;;;;;;;51.58;7.55;;;11.40;93.80;;;;;;4989826;28;20034;-58
2020/12/23 12:23:43;;;;;;;87.45;10.00;;;11.40;93.80;;;;;;4987736;28;20038;-58
2020/12/23 12:26:08;;;;;;;51.45;7.78;;;11.50;93.80;;;;;;4977901;28;20027;-58
2020/12/23 12:28:34;;;;;;;53.25;8.15;;;11.50;93.70;;;;;;4977845;28;20075;-57
2020/12/23 12:30:59;;;;;;;49.53;7.75;;;11.50;93.70;;;;;;4980762;28;20430;-58
2020/12/23 12:33:25;;;;;;;43.50;6.97;;;11.50;93.70;;;;;;4981702;28;20177;-57
2020/12/23 12:35:50;;;;;;;39.38;7.00;;;11.50;93.60;;;;;;4988712;28;20385;-57
2020/12/23 12:38:16;;;;;;;40.50;6.68;;;11.50;93.60;;;;;;4990054;28;20343;-58
2020/12/23 12:40:42;;;;;;;39.88;6.30;;;11.50;93.60;;;;;;4987165;28;20497;-58
2020/12/23 12:43:07;;;;;;;46.58;6.47;;;11.50;93.50;;;;;;4986140;28;20570;-57